createdAt,value
2023-04-07T00:00:22.847Z,27.67
2023-04-07T00:03:17.093Z,28.52
2023-04-07T00:06:10.853Z,29.77
2023-04-07T00:08:51.370Z,29.85
2023-04-07T00:11:18.274Z,29.95
2023-04-07T00:13:45.530Z,25.35
2023-04-07T00:16:12.552Z,27.63
2023-04-07T00:18:39.419Z,30.08
2023-04-07T00:21:27.849Z,26.20
2023-04-07T00:24:08.400Z,26.52
2023-04-07T00:26:35.323Z,41.47
2023-04-07T00:29:02.241Z,37.88
2023-04-07T00:31:29.121Z,31.92
2023-04-07T00:33:57.908Z,25.23
2023-04-07T00:36:27.220Z,36.90
2023-04-07T00:38:54.293Z,27.10
2023-04-07T00:41:21.166Z,40.88
2023-04-07T00:43:50.935Z,29.52
2023-04-07T00:46:19.852Z,30.13
2023-04-07T00:48:46.872Z,31.08
2023-04-07T00:51:14.744Z,30.83
2023-04-07T00:53:42.152Z,27.83
2023-04-07T00:56:09.221Z,31.27
2023-04-07T00:58:36.345Z,27.63
2023-04-07T01:01:33.036Z,32.25
2023-04-07T01:05:08.016Z,35.30
2023-04-07T01:07:56.322Z,22.57
2023-04-07T01:10:33.159Z,32.10
2023-04-07T01:13:11.666Z,32.20
2023-04-07T01:15:40.113Z,43.67
2023-04-07T01:18:14.100Z,33.50
2023-04-07T01:21:04.856Z,29.02
2023-04-07T01:24:11.895Z,31.35
2023-04-07T01:27:47.866Z,35.47
2023-04-07T01:30:31.509Z,29.65
2023-04-07T01:33:00.555Z,26.35
2023-04-07T01:35:34.757Z,28.55
2023-04-07T01:38:03.303Z,25.20
2023-04-07T01:40:31.067Z,30.35
2023-04-07T01:43:00.503Z,32.33
2023-04-07T01:45:28.779Z,27.08
2023-04-07T01:47:56.146Z,36.05
2023-04-07T01:50:24.673Z,29.05
2023-04-07T01:52:53.424Z,29.27
2023-04-07T01:55:21.718Z,34.53
2023-04-07T01:57:58.583Z,32.15
2023-04-07T02:00:45.918Z,32.08
2023-04-07T02:03:49.142Z,43.97
2023-04-07T02:06:34.904Z,29.65
2023-04-07T02:09:07.119Z,26.45
2023-04-07T02:11:36.215Z,28.38
2023-04-07T02:14:07.461Z,30.27
2023-04-07T02:16:48.849Z,35.67
2023-04-07T02:19:16.701Z,33.92
2023-04-07T02:22:04.950Z,27.52
2023-04-07T02:24:46.384Z,24.52
2023-04-07T02:27:13.276Z,30.92
2023-04-07T02:29:40.939Z,27.55
2023-04-07T02:32:07.930Z,29.38
2023-04-07T02:34:34.889Z,39.78
2023-04-07T02:37:01.868Z,29.52
2023-04-07T02:39:28.707Z,41.17
2023-04-07T02:41:57.270Z,29.42
2023-04-07T02:44:24.129Z,32.95
2023-04-07T02:46:51.032Z,32.35
2023-04-07T02:49:17.940Z,31.90
2023-04-07T02:51:46.963Z,33.42
2023-04-07T02:54:13.903Z,31.10
2023-04-07T02:56:40.814Z,34.03
2023-04-07T02:59:07.811Z,28.90
2023-04-07T03:01:53.000Z,33.40
2023-04-07T03:04:53.926Z,33.05
2023-04-07T03:07:35.427Z,29.33
2023-04-07T03:10:02.384Z,24.73
2023-04-07T03:12:32.045Z,40.72
2023-04-07T03:14:59.092Z,40.47
2023-04-07T03:17:26.883Z,27.90
2023-04-07T03:19:54.237Z,40.67
2023-04-07T03:22:48.092Z,38.55
2023-04-07T03:25:32.783Z,35.03
2023-04-07T03:28:01.705Z,50.40
2023-04-07T03:30:32.475Z,31.45
2023-04-07T03:32:59.411Z,39.83
2023-04-07T03:35:27.353Z,30.50
2023-04-07T03:37:54.241Z,28.98
2023-04-07T03:40:21.996Z,30.15
2023-04-07T03:42:48.942Z,42.60
2023-04-07T03:45:17.642Z,39.97
2023-04-07T03:47:49.632Z,28.55
2023-04-07T03:50:17.532Z,30.13
2023-04-07T03:52:54.827Z,33.60
2023-04-07T03:55:27.373Z,33.63
2023-04-07T03:57:59.048Z,32.13
2023-04-07T04:00:49.954Z,38.35
2023-04-07T04:03:51.172Z,33.45
2023-04-07T04:06:36.589Z,28.45
2023-04-07T04:09:21.424Z,32.40
2023-04-07T04:11:49.671Z,30.15
2023-04-07T04:14:17.408Z,29.88
2023-04-07T04:16:51.027Z,32.28
2023-04-07T04:19:26.859Z,40.78
2023-04-07T04:22:15.978Z,37.58
2023-04-07T04:25:01.490Z,33.42
2023-04-07T04:27:28.903Z,31.00
2023-04-07T04:30:07.167Z,35.35
2023-04-07T04:32:47.783Z,40.95
2023-04-07T04:35:37.008Z,30.38
2023-04-07T04:38:20.529Z,33.65
2023-04-07T04:40:58.729Z,31.45
2023-04-07T04:43:29.498Z,34.35
2023-04-07T04:45:57.059Z,35.42
2023-04-07T04:48:40.059Z,31.35
2023-04-07T04:51:20.957Z,29.03
2023-04-07T04:53:53.713Z,32.85
2023-04-07T04:56:23.150Z,28.17
2023-04-07T04:58:50.939Z,32.05
2023-04-07T05:01:39.113Z,38.33
2023-04-07T05:04:29.906Z,40.47
2023-04-07T05:07:15.976Z,34.00
2023-04-07T05:09:43.021Z,35.63
2023-04-07T05:12:09.936Z,35.53
2023-04-07T05:14:42.665Z,33.10
2023-04-07T05:17:09.623Z,32.92
2023-04-07T05:19:36.540Z,38.10
2023-04-07T05:22:24.012Z,32.83
2023-04-07T05:25:25.022Z,35.83
2023-04-07T05:28:08.609Z,45.13
2023-04-07T05:30:35.626Z,60.47
2023-04-07T05:33:02.959Z,44.15
2023-04-07T05:35:40.796Z,43.47
2023-04-07T05:38:07.835Z,32.33
2023-04-07T05:40:37.425Z,44.15
2023-04-07T05:43:06.511Z,43.85
2023-04-07T05:45:35.716Z,34.08
2023-04-07T05:48:23.017Z,39.30
2023-04-07T05:51:24.026Z,33.80
2023-04-07T05:54:06.416Z,27.08
2023-04-07T05:56:33.344Z,39.92
2023-04-07T05:59:01.964Z,52.75
2023-04-07T06:01:49.083Z,49.78
2023-04-07T06:04:29.905Z,34.28
2023-04-07T06:06:56.874Z,30.30
2023-04-07T06:09:24.473Z,45.78
2023-04-07T06:11:51.538Z,41.22
2023-04-07T06:14:20.822Z,42.30
2023-04-07T06:16:48.995Z,33.38
2023-04-07T06:19:16.069Z,43.50
2023-04-07T06:22:03.072Z,42.95
2023-04-07T06:24:46.690Z,38.70
2023-04-07T06:27:13.567Z,35.05
2023-04-07T06:29:40.566Z,42.90
2023-04-07T06:32:07.818Z,39.30
2023-04-07T06:34:36.390Z,40.78
2023-04-07T06:37:03.899Z,42.58
2023-04-07T06:39:31.161Z,47.05
2023-04-07T06:41:58.230Z,46.90
2023-04-07T06:44:25.282Z,50.10
2023-04-07T06:47:12.043Z,48.17
2023-04-07T06:50:13.093Z,39.03
2023-04-07T06:53:07.256Z,39.30
2023-04-07T06:55:41.871Z,63.85
2023-04-07T06:58:08.845Z,53.88
2023-04-07T07:00:37.275Z,59.88
2023-04-07T07:03:39.140Z,46.03
2023-04-07T07:06:40.097Z,43.42
2023-04-07T07:09:41.109Z,61.20
2023-04-07T07:12:21.649Z,58.83
2023-04-07T07:14:48.548Z,72.72
2023-04-07T07:17:15.692Z,51.42
2023-04-07T07:19:43.165Z,45.28
2023-04-07T07:22:30.090Z,62.92
2023-04-07T07:25:10.846Z,45.42
2023-04-07T07:27:37.858Z,56.10
2023-04-07T07:30:06.067Z,57.65
2023-04-07T07:32:32.990Z,54.95
2023-04-07T07:35:00.155Z,51.20
2023-04-07T07:37:28.094Z,57.05
2023-04-07T07:40:15.075Z,46.75
2023-04-07T07:42:55.982Z,66.88
2023-04-07T07:45:22.904Z,52.92
2023-04-07T07:48:10.084Z,37.83
2023-04-07T07:51:11.112Z,45.47
2023-04-07T07:53:52.683Z,55.85
2023-04-07T07:56:19.657Z,42.63
2023-04-07T07:58:46.732Z,36.60
2023-04-07T08:01:34.129Z,43.00
2023-04-07T08:04:35.161Z,32.38
2023-04-07T08:07:02.600Z,46.20
2023-04-07T08:09:29.757Z,50.35
2023-04-07T08:11:56.709Z,58.80
2023-04-07T08:14:23.692Z,42.58
2023-04-07T08:16:50.936Z,47.35
2023-04-07T08:19:17.911Z,44.92
2023-04-07T08:22:05.131Z,42.83
2023-04-07T08:24:45.859Z,51.15
2023-04-07T08:27:12.715Z,34.25
2023-04-07T08:29:39.629Z,37.25
2023-04-07T08:32:06.621Z,42.90
2023-04-07T08:34:33.671Z,38.33
2023-04-07T08:37:00.706Z,36.10
2023-04-07T08:39:28.307Z,41.70
2023-04-07T08:41:55.695Z,31.08
2023-04-07T08:44:23.688Z,32.60
2023-04-07T08:47:14.119Z,41.75
2023-04-07T08:49:58.259Z,40.33
2023-04-07T08:52:33.018Z,38.65
2023-04-07T08:55:03.289Z,43.55
2023-04-07T08:57:34.778Z,38.08
2023-04-07T09:00:06.271Z,32.67
2023-04-07T09:02:56.320Z,43.35
2023-04-07T09:06:00.187Z,33.83
2023-04-07T09:09:01.181Z,36.22
2023-04-07T09:11:41.810Z,46.35
2023-04-07T09:14:08.885Z,37.17
2023-04-07T09:16:36.267Z,47.97
2023-04-07T09:19:03.286Z,35.53
2023-04-07T09:22:04.175Z,42.33
2023-04-07T09:24:44.643Z,52.97
2023-04-07T09:27:19.494Z,35.75
2023-04-07T09:29:47.968Z,35.65
2023-04-07T09:32:37.015Z,38.65
2023-04-07T09:35:04.266Z,43.78
2023-04-07T09:37:31.185Z,44.65
2023-04-07T09:39:58.172Z,42.67
2023-04-07T09:42:26.738Z,38.55
2023-04-07T09:44:53.771Z,32.90
2023-04-07T09:47:46.173Z,48.33
2023-04-07T09:50:43.831Z,43.75
2023-04-07T09:53:11.115Z,47.42
2023-04-07T09:55:41.089Z,52.67
2023-04-07T09:58:09.107Z,43.03
2023-04-07T10:00:38.151Z,34.85
2023-04-07T10:03:40.157Z,37.83
2023-04-07T10:06:41.205Z,34.83
2023-04-07T10:09:28.435Z,27.98
2023-04-07T10:11:59.971Z,37.72
2023-04-07T10:14:30.452Z,27.27
2023-04-07T10:16:59.762Z,43.50
2023-04-07T10:19:31.804Z,42.20
2023-04-07T10:22:20.201Z,28.75
2023-04-07T10:25:22.775Z,31.23
2023-04-07T10:27:53.414Z,34.97
2023-04-07T10:30:25.299Z,30.63
2023-04-07T10:32:54.304Z,43.13
2023-04-07T10:35:22.287Z,30.02
2023-04-07T10:38:07.919Z,30.70
2023-04-07T10:40:36.425Z,33.25
2023-04-07T10:43:24.204Z,36.00
2023-04-07T10:46:04.820Z,40.88
2023-04-07T10:48:52.200Z,29.75
2023-04-07T10:51:32.744Z,34.42
2023-04-07T10:54:35.266Z,24.52
2023-04-07T10:57:14.600Z,38.67
2023-04-07T11:00:10.715Z,27.23
2023-04-07T11:02:58.374Z,30.75
2023-04-07T11:05:42.317Z,28.08
2023-04-07T11:08:09.328Z,40.47
2023-04-07T11:11:01.292Z,35.33
2023-04-07T11:14:03.254Z,28.65
2023-04-07T11:16:45.121Z,38.47
2023-04-07T11:19:12.036Z,23.60
2023-04-07T11:21:59.196Z,24.23
2023-04-07T11:24:40.617Z,27.55
2023-04-07T11:27:13.169Z,31.05
2023-04-07T11:29:40.305Z,38.20
2023-04-07T11:32:07.358Z,43.55
2023-04-07T11:34:36.157Z,35.58
2023-04-07T11:37:27.244Z,42.53
2023-04-07T11:40:03.503Z,28.75
2023-04-07T11:42:38.357Z,33.75
2023-04-07T11:45:08.284Z,34.47
2023-04-07T11:47:56.247Z,37.45
2023-04-07T11:50:43.401Z,28.33
2023-04-07T11:53:10.630Z,28.60
2023-04-07T11:55:37.601Z,45.13
2023-04-07T11:58:10.820Z,29.48
2023-04-07T12:01:10.246Z,28.50
2023-04-07T12:04:09.591Z,37.30
2023-04-07T12:06:50.645Z,34.45
2023-04-07T12:09:43.266Z,30.48
2023-04-07T12:12:28.521Z,33.63
2023-04-07T12:14:56.557Z,38.20
2023-04-07T12:17:24.677Z,33.30
2023-04-07T12:19:51.538Z,31.65
2023-04-07T12:22:38.257Z,32.13
2023-04-07T12:25:40.260Z,38.45
2023-04-07T12:28:20.883Z,41.55
2023-04-07T12:31:09.259Z,37.13
2023-04-07T12:34:10.258Z,37.08
2023-04-07T12:37:11.273Z,33.80
2023-04-07T12:39:38.697Z,37.33
2023-04-07T12:42:06.010Z,34.90
2023-04-07T12:44:32.948Z,44.85
2023-04-07T12:47:20.330Z,40.30
2023-04-07T12:50:21.284Z,41.95
2023-04-07T12:53:22.250Z,39.78
2023-04-07T12:56:03.452Z,40.38
2023-04-07T12:58:30.473Z,42.45
2023-04-07T13:01:17.366Z,38.33
2023-04-07T13:04:18.367Z,34.40
2023-04-07T13:06:59.639Z,33.75
2023-04-07T13:09:26.571Z,39.17
2023-04-07T13:11:53.451Z,47.25
2023-04-07T13:14:20.380Z,36.45
2023-04-07T13:16:47.702Z,41.75
2023-04-07T13:19:14.792Z,42.70
2023-04-07T13:22:06.048Z,50.33
2023-04-07T13:24:47.529Z,45.80
2023-04-07T13:27:14.619Z,34.33
2023-04-07T13:29:41.553Z,33.63
2023-04-07T13:32:28.315Z,39.45
2023-04-07T13:35:32.329Z,40.00
2023-04-07T13:38:13.119Z,36.25
2023-04-07T13:40:40.236Z,43.22
2023-04-07T13:43:07.921Z,40.58
2023-04-07T13:45:35.530Z,40.53
2023-04-07T13:48:22.313Z,47.08
2023-04-07T13:51:24.284Z,40.13
2023-04-07T13:54:25.319Z,37.63
2023-04-07T13:57:06.064Z,49.63
2023-04-07T13:59:32.994Z,35.47
2023-04-07T14:02:20.444Z,37.22
2023-04-07T14:05:21.312Z,51.00
2023-04-07T14:08:22.348Z,40.08
2023-04-07T14:11:06.951Z,37.08
2023-04-07T14:13:33.960Z,50.50
2023-04-07T14:16:01.031Z,35.47
2023-04-07T14:18:28.178Z,39.78
2023-04-07T14:21:15.461Z,37.03
2023-04-07T14:23:56.497Z,42.40
2023-04-07T14:26:23.557Z,36.53
2023-04-07T14:28:50.544Z,41.65
2023-04-07T14:31:17.886Z,38.45
2023-04-07T14:33:45.717Z,46.88
2023-04-07T14:36:16.008Z,50.75
2023-04-07T14:38:43.791Z,68.00
2023-04-07T14:41:30.374Z,40.75
2023-04-07T14:44:32.323Z,45.72
2023-04-07T14:47:33.359Z,41.13
2023-04-07T14:50:14.029Z,41.50
2023-04-07T14:52:41.037Z,45.72
2023-04-07T14:55:28.364Z,40.75
2023-04-07T14:58:09.197Z,44.70
2023-04-07T15:00:36.271Z,42.05
2023-04-07T15:03:23.595Z,41.22
2023-04-07T15:06:11.937Z,39.95
2023-04-07T15:08:39.013Z,38.65
2023-04-07T15:11:07.577Z,51.00
2023-04-07T15:13:35.850Z,46.75
2023-04-07T15:16:07.792Z,39.72
2023-04-07T15:18:57.366Z,34.15
2023-04-07T15:21:58.425Z,40.70
2023-04-07T15:24:59.403Z,22.00
2023-04-07T15:27:46.398Z,27.52
2023-04-07T15:30:13.398Z,29.08
2023-04-07T15:32:40.486Z,21.92
2023-04-07T15:35:07.820Z,32.08
2023-04-07T15:37:34.666Z,16.33
2023-04-07T15:40:01.725Z,19.98
2023-04-07T15:42:28.775Z,18.52
2023-04-07T15:44:55.689Z,16.27
2023-04-07T15:47:42.443Z,20.10
2023-04-07T15:50:43.388Z,21.95
2023-04-07T15:53:24.070Z,17.90
2023-04-07T15:55:50.926Z,20.55
2023-04-07T15:58:17.845Z,18.42
2023-04-07T16:01:05.689Z,17.98
2023-04-07T16:04:06.645Z,17.83
2023-04-07T16:07:07.415Z,17.08
2023-04-07T16:09:46.069Z,25.58
2023-04-07T16:12:13.278Z,15.55
2023-04-07T16:14:40.284Z,23.08
2023-04-07T16:17:07.232Z,25.10
2023-04-07T16:19:54.378Z,24.35
2023-04-07T16:22:56.419Z,17.30
2023-04-07T16:25:36.994Z,25.25
2023-04-07T16:28:04.083Z,26.67
2023-04-07T16:30:31.196Z,29.08
2023-04-07T16:33:00.316Z,17.42
2023-04-07T16:35:27.351Z,15.77
2023-04-07T16:37:54.861Z,19.10
2023-04-07T16:40:50.427Z,22.80
2023-04-07T16:43:36.917Z,22.48
2023-04-07T16:46:24.554Z,22.77
2023-04-07T16:49:05.044Z,21.15
2023-04-07T16:51:32.145Z,41.60
2023-04-07T16:53:59.049Z,24.90
2023-04-07T16:56:46.381Z,20.65
2023-04-07T16:59:47.444Z,19.30
2023-04-07T17:02:48.522Z,16.75
2023-04-07T17:05:28.985Z,16.27
2023-04-07T17:07:57.219Z,12.43
2023-04-07T17:10:24.346Z,11.80
2023-04-07T17:12:56.081Z,13.25
2023-04-07T17:15:23.694Z,15.43
2023-04-07T17:18:10.462Z,11.48
2023-04-07T17:21:11.398Z,9.50
2023-04-07T17:23:52.239Z,16.80
2023-04-07T17:26:39.427Z,25.52
2023-04-07T17:29:21.121Z,8.77
2023-04-07T17:31:49.809Z,9.32
2023-04-07T17:34:16.696Z,10.35
2023-04-07T17:36:43.610Z,17.90
2023-04-07T17:39:10.544Z,11.45
2023-04-07T17:41:38.508Z,14.52
2023-04-07T17:44:25.436Z,10.65
2023-04-07T17:47:26.468Z,11.30
2023-04-07T17:50:07.543Z,11.30
2023-04-07T17:52:34.466Z,11.30
2023-04-07T17:55:01.564Z,14.23
2023-04-07T17:57:28.678Z,15.98
2023-04-07T17:59:56.002Z,14.93
2023-04-07T18:02:43.587Z,18.90
2023-04-07T18:05:44.718Z,12.85
2023-04-07T18:08:26.267Z,11.48
2023-04-07T18:10:53.746Z,11.48
2023-04-07T18:13:20.819Z,13.82
2023-04-07T18:15:48.641Z,11.07
2023-04-07T18:18:15.716Z,11.13
2023-04-07T18:21:03.778Z,12.18
2023-04-07T18:23:44.211Z,12.82
2023-04-07T18:26:11.423Z,12.80
2023-04-07T18:28:38.416Z,12.02
2023-04-07T18:31:08.339Z,11.55
2023-04-07T18:33:36.383Z,13.90
2023-04-07T18:36:07.259Z,13.65
2023-04-07T18:38:41.084Z,13.73
2023-04-07T18:41:08.094Z,9.77
2023-04-07T18:43:35.495Z,11.60
2023-04-07T18:46:22.538Z,10.07
2023-04-07T18:49:03.615Z,11.60
2023-04-07T18:51:31.211Z,11.07
2023-04-07T18:53:58.243Z,11.43
2023-04-07T18:56:28.560Z,12.32
2023-04-07T18:58:55.561Z,11.50
2023-04-07T19:01:42.728Z,9.60
2023-04-07T19:04:43.602Z,12.65
2023-04-07T19:07:22.667Z,9.90
2023-04-07T19:09:53.072Z,14.40
2023-04-07T19:12:20.039Z,9.80
2023-04-07T19:14:47.153Z,13.50
2023-04-07T19:17:36.129Z,14.75
2023-04-07T19:20:40.577Z,28.58
2023-04-07T19:23:40.129Z,39.58
2023-04-07T19:26:07.061Z,25.33
2023-04-07T19:31:16.125Z,19.45
2023-04-07T19:33:43.700Z,21.70
2023-04-07T19:36:11.270Z,16.35
2023-04-07T19:38:38.749Z,13.73
2023-04-07T19:41:07.075Z,22.17
2023-04-07T19:43:54.619Z,21.40
2023-04-07T19:46:56.671Z,17.17
2023-04-07T19:49:37.733Z,21.23
2023-04-07T19:52:04.798Z,19.40
2023-04-07T19:54:31.984Z,19.27
2023-04-07T19:56:59.038Z,13.07
2023-04-07T19:59:26.089Z,19.23
2023-04-07T20:02:13.669Z,16.55
2023-04-07T20:05:14.580Z,18.95
2023-04-07T20:07:55.491Z,13.40
2023-04-07T20:10:22.487Z,18.83
2023-04-07T20:12:49.702Z,14.90
2023-04-07T20:15:17.273Z,12.93
2023-04-07T20:17:45.847Z,15.00
2023-04-07T20:20:32.687Z,14.95
2023-04-07T20:23:27.266Z,15.60
2023-04-07T20:26:20.570Z,14.52
2023-04-07T20:28:52.804Z,15.07
2023-04-07T20:31:19.964Z,17.60
2023-04-07T20:33:47.068Z,13.25
2023-04-07T20:36:14.140Z,13.07
2023-04-07T20:38:44.551Z,14.00
2023-04-07T20:41:16.701Z,13.13
2023-04-07T20:43:43.718Z,17.30
2023-04-07T20:46:30.612Z,16.30
2023-04-07T20:49:11.260Z,24.90
2023-04-07T20:51:38.249Z,20.50
2023-04-07T20:54:05.237Z,14.57
2023-04-07T20:56:32.442Z,16.75
2023-04-07T20:58:59.423Z,18.42
2023-04-07T21:01:46.691Z,16.00
2023-04-07T21:04:47.577Z,16.05
2023-04-07T21:07:24.612Z,15.63
2023-04-07T21:09:51.705Z,14.35
2023-04-07T21:12:18.817Z,15.45
2023-04-07T21:14:46.350Z,14.23
2023-04-07T21:17:13.223Z,18.80
2023-04-07T21:19:41.129Z,19.13
2023-04-07T21:22:28.580Z,20.15
2023-04-07T21:25:09.754Z,17.60
2023-04-07T21:27:56.575Z,18.02
2023-04-07T21:30:59.611Z,22.00
2023-04-07T21:33:40.426Z,28.17
2023-04-07T21:36:07.530Z,21.40
2023-04-07T21:38:34.456Z,17.52
2023-04-07T21:41:01.363Z,23.38
2023-04-07T21:43:28.937Z,21.55
2023-04-07T21:46:15.662Z,31.02
2023-04-07T21:48:56.226Z,32.78
2023-04-07T21:51:23.173Z,47.15
2023-04-07T21:54:10.600Z,26.77
2023-04-07T21:56:52.687Z,21.48
2023-04-07T21:59:19.637Z,18.60
2023-04-07T22:02:06.759Z,19.83
2023-04-07T22:04:54.645Z,18.63
2023-04-07T22:07:21.608Z,18.58
2023-04-07T22:09:48.511Z,17.67
2023-04-07T22:12:15.531Z,22.13
2023-04-07T22:14:43.047Z,21.90
2023-04-07T22:17:10.007Z,18.35
2023-04-07T22:19:36.975Z,18.08
2023-04-07T22:22:23.686Z,20.25
2023-04-07T22:25:04.505Z,29.55
2023-04-07T22:27:31.351Z,18.58
2023-04-07T22:29:58.591Z,18.23
2023-04-07T22:32:25.635Z,18.58
2023-04-07T22:34:52.656Z,30.48
2023-04-07T22:37:19.804Z,17.83
2023-04-07T22:39:47.025Z,17.83
2023-04-07T22:42:14.015Z,25.98
2023-04-07T22:45:00.667Z,17.83
2023-04-07T22:48:01.737Z,14.50
2023-04-07T22:50:57.771Z,20.85
2023-04-07T22:53:24.831Z,21.02
2023-04-07T22:55:51.822Z,15.32
2023-04-07T22:58:18.765Z,16.42
2023-04-07T23:00:45.714Z,17.52
2023-04-07T23:03:32.742Z,15.77
2023-04-07T23:06:13.260Z,14.82
2023-04-07T23:08:40.399Z,16.98
2023-04-07T23:11:27.666Z,13.38
2023-04-07T23:14:08.654Z,15.10
2023-04-07T23:16:35.893Z,14.18
2023-04-07T23:19:03.279Z,19.17
2023-04-07T23:21:50.682Z,14.73
2023-04-07T23:24:31.194Z,14.43
2023-04-07T23:27:18.691Z,16.25
2023-04-07T23:30:09.916Z,15.57
2023-04-07T23:32:36.932Z,14.60
2023-04-07T23:35:04.021Z,20.88
2023-04-07T23:37:31.012Z,16.17
2023-04-07T23:39:58.001Z,15.82
2023-04-07T23:42:24.979Z,19.08
2023-04-07T23:45:12.662Z,18.20
2023-04-07T23:47:53.202Z,17.35
2023-04-07T23:50:20.500Z,17.67
2023-04-07T23:52:47.697Z,18.73
2023-04-07T23:55:14.744Z,28.38
2023-04-07T23:57:41.765Z,20.05
